| time (UTC) | temp C | wind direction | speed KPH | gust KPH | rain 1hr cm | rain 24hr cm | rain mn cm | humidity % | barometer mb |
| 20260507060047 | 10 | 96 | 0.0 | 4.8 | 0.03 | 1.14 | 0.03 | 87 | 1009.2 |
| 20260507054544 | 11 | 178 | 0.0 | 3.2 | 0.03 | 1.14 | 0.03 | 85 | 1009.0 |
| 20260507053040 | 11 | 309 | 0.0 | 4.8 | 0.00 | 1.12 | 0.00 | 84 | 1009.1 |
| 20260507051538 | 11 | 121 | 0.0 | 4.8 | 0.00 | 1.12 | 0.00 | 84 | 1008.9 |
| 20260507050052 | 11 | 78 | 0.0 | 4.8 | 0.00 | 1.12 | 0.00 | 85 | 1009.2 |
| 20260507044536 | 11 | 87 | 1.6 | 4.8 | 0.00 | 1.12 | 1.12 | 86 | 1009.0 |
| 20260507043027 | 11 | 89 | 0.0 | 3.2 | 0.00 | 1.12 | 1.12 | 86 | 1009.3 |
| 20260507041527 | 11 | 74 | 0.0 | 6.4 | 0.00 | 1.12 | 1.12 | 85 | 1008.7 |
| 20260507040024 | 11 | 259 | 3.2 | 9.7 | 0.00 | 1.12 | 1.12 | 85 | 1007.8 |
| 20260507034529 | 11 | 174 | 1.6 | 6.4 | 0.00 | 1.12 | 1.12 | 85 | 1008.7 |
| 20260507033021 | 11 | 214 | 0.0 | 4.8 | 0.00 | 1.12 | 1.12 | 86 | 1009.0 |
| 20260507031514 | 11 | 104 | 1.6 | 4.8 | 0.00 | 1.12 | 1.12 | 86 | 1008.9 |
| 20260507030013 | 11 | 104 | 3.2 | 16.1 | 0.00 | 1.12 | 1.12 | 85 | 1008.3 |
| 20260507024516 | 12 | 137 | 0.0 | 9.7 | 0.00 | 1.12 | 1.12 | 85 | 1008.6 |
| 20260507023010 | 12 | 269 | 1.6 | 6.4 | 0.00 | 1.12 | 1.12 | 86 | 1008.3 |
| 20260507021518 | 12 | 70 | 1.6 | 6.4 | 0.00 | 1.12 | 1.12 | 86 | 1008.4 |
| 20260507020019 | 12 | 302 | 0.0 | 8.0 | 0.00 | 1.12 | 1.12 | 85 | 1008.6 |
| 20260507014501 | 13 | 139 | 3.2 | 11.3 | 0.00 | 1.12 | 1.12 | 84 | 1008.6 |
| 20260507013101 | 13 | 115 | 3.2 | 11.3 | 0.00 | 1.12 | 1.12 | 85 | 1008.6 |
| 20260507011603 | 13 | 59 | 3.2 | 4.8 | 0.00 | 1.12 | 1.12 | 85 | 1008.3 |
| 20260507010056 | 13 | 139 | 3.2 | 12.9 | 0.00 | 1.12 | 1.12 | 85 | 1008.3 |
| 20260507004556 | 13 | 53 | 0.0 | 12.9 | 0.00 | 1.12 | 1.12 | 86 | 1007.9 |
| 20260507003055 | 14 | 234 | 3.2 | 20.9 | 0.00 | 1.12 | 1.12 | 86 | 1007.7 |
| 20260507001600 | 15 | 90 | 3.2 | 6.4 | 0.00 | 1.12 | 1.12 | 88 | 1007.1 |
| 20260507000053 | 15 | 119 | 1.6 | 12.9 | 0.00 | 1.12 | 1.12 | 87 | 1006.7 |
| 20260506234604 | 15 | 170 | 3.2 | 14.5 | 0.00 | 1.12 | 1.12 | 86 | 1006.3 |
| 20260506233045 | 16 | 94 | 0.0 | 6.4 | 0.00 | 1.12 | 1.12 | 92 | 1005.9 |
| 20260506231543 | 16 | 99 | 1.6 | 9.7 | 0.00 | 1.12 | 1.12 | 94 | 1005.6 |
| 20260506230038 | 16 | 85 | 1.6 | 6.4 | 0.00 | 1.12 | 1.12 | 94 | 1005.4 |
| 20260506224542 | 16 | 69 | 0.0 | 0.0 | 0.00 | 1.12 | 1.12 | 94 | 1005.3 |
| 20260506223037 | 17 | 69 | 0.0 | 0.0 | 0.00 | 1.12 | 1.12 | 93 | 1005.4 |
| 20260506221536 | 17 | 107 | 0.0 | 0.0 | 0.00 | 1.12 | 1.12 | 93 | 1005.1 |
| 20260506220035 | 17 | 107 | 0.0 | 6.4 | 0.00 | 1.12 | 1.12 | 93 | 1005.0 |
| 20260506214532 | 17 | 69 | 0.0 | 3.2 | 0.00 | 1.12 | 1.12 | 92 | 1004.8 |
| 20260506213029 | 17 | 88 | 3.2 | 9.7 | 0.00 | 1.12 | 1.12 | 92 | 1004.5 |
| 20260506211528 | 17 | 18 | 0.0 | 4.8 | 0.00 | 1.12 | 1.12 | 92 | 1004.3 |
| 20260506210030 | 17 | 38 | 0.0 | 4.8 | 0.00 | 1.12 | 1.12 | 91 | 1004.2 |
| 20260506204525 | 18 | 158 | 0.0 | 4.8 | 0.00 | 1.12 | 1.12 | 91 | 1004.2 |
| 20260506203024 | 18 | 115 | 3.2 | 11.3 | 0.00 | 1.12 | 1.12 | 91 | 1004.2 |
| 20260506201516 | 17 | 79 | 6.4 | 14.5 | 0.00 | 1.12 | 1.12 | 93 | 1004.2 |
| 20260506200014 | 17 | 93 | 1.6 | 19.3 | 0.00 | 1.12 | 1.12 | 94 | 1004.3 |
| 20260506194512 | 17 | 103 | 1.6 | 14.5 | 0.00 | 1.12 | 1.12 | 95 | 1004.3 |
| 20260506193012 | 16 | 93 | 1.6 | 14.5 | 0.00 | 1.12 | 1.12 | 96 | 1004.3 |
| 20260506191507 | 16 | 94 | 3.2 | 14.5 | 0.00 | 1.12 | 1.12 | 96 | 1004.5 |
| 20260506190007 | 16 | 29 | 4.8 | 14.5 | 0.00 | 1.12 | 1.12 | 96 | 1004.6 |
| 20260506184502 | 16 | 76 | 3.2 | 12.9 | 0.03 | 1.12 | 1.12 | 97 | 1004.7 |
| 20260506183001 | 16 | 112 | 3.2 | 12.9 | 0.05 | 1.12 | 1.12 | 97 | 1004.7 |
| 20260506181502 | 15 | 80 | 1.6 | 6.4 | 0.13 | 1.12 | 1.12 | 97 | 1005.0 |
| 20260506180003 | 15 | 67 | 1.6 | 11.3 | 0.23 | 1.12 | 1.12 | 96 | 1005.0 |
| 20260506174605 | 15 | 115 | 4.8 | 16.1 | 0.23 | 1.09 | 1.09 | 96 | 1005.0 |
| 20260506173111 | 15 | 105 | 3.2 | 8.0 | 0.23 | 1.07 | 1.07 | 96 | 1005.0 |
| 20260506171559 | 15 | 105 | 1.6 | 9.7 | 0.25 | 0.99 | 0.99 | 96 | 1005.0 |
| 20260506170050 | 15 | 91 | 4.8 | 11.3 | 0.15 | 0.89 | 0.89 | 96 | 1005.2 |
| 20260506164551 | 15 | 112 | 1.6 | 12.9 | 0.13 | 0.86 | 0.86 | 96 | 1005.1 |
| 20260506163042 | 15 | 75 | 0.0 | 11.3 | 0.10 | 0.81 | 0.81 | 95 | 1005.1 |
| 20260506161546 | 15 | 34 | 0.0 | 4.8 | 0.08 | 0.71 | 0.71 | 95 | 1005.2 |
| 20260506160044 | 15 | 109 | 0.0 | 4.8 | 0.18 | 0.71 | 0.71 | 95 | 1005.1 |
| 20260506154536 | 15 | 188 | 0.0 | 8.0 | 0.28 | 0.71 | 0.71 | 95 | 1005.0 |
| 20260506153035 | 15 | 252 | 0.0 | 8.0 | 0.36 | 0.71 | 0.71 | 96 | 1005.1 |
| 20260506151545 | 15 | 132 | 1.6 | 9.7 | 0.36 | 0.66 | 0.66 | 95 | 1005.4 |
| 20260506150034 | 15 | 42 | 1.6 | 9.7 | 0.30 | 0.56 | 0.56 | 95 | 1005.8 |
| 20260506144532 | 15 | 101 | 0.0 | 6.4 | 0.23 | 0.43 | 0.43 | 95 | 1005.6 |
| 20260506143044 | 15 | 196 | 0.0 | 4.8 | 0.15 | 0.36 | 0.36 | 95 | 1005.2 |
| 20260506141532 | 15 | 200 | 0.0 | 3.2 | 0.13 | 0.30 | 0.30 | 94 | 1005.4 |
| 20260506140028 | 15 | 163 | 0.0 | 1.6 | 0.10 | 0.25 | 0.25 | 94 | 1005.6 |
| 20260506134521 | 15 | 235 | 0.0 | 0.0 | 0.10 | 0.20 | 0.20 | 94 | 1006.1 |
| 20260506133023 | 15 | 235 | 0.0 | 3.2 | 0.15 | 0.20 | 0.20 | 94 | 1005.9 |
| 20260506131522 | 15 | 263 | 0.0 | 1.6 | 0.15 | 0.18 | 0.18 | 94 | 1005.9 |
| 20260506130015 | 15 | 263 | 0.0 | 0.0 | 0.15 | 0.15 | 0.15 | 93 | 1006.0 |
| 20260506124511 | 15 | 263 | 0.0 | 0.0 | 0.10 | 0.10 | 0.10 | 92 | 1006.2 |
| 20260506123009 | 16 | 263 | 0.0 | 1.6 | 0.05 | 0.05 | 0.05 | 90 | 1006.3 |
| 20260506121507 | 16 | 263 | 0.0 | 1.6 | 0.03 | 0.03 | 0.03 | 88 | 1006.1 |
| 20260506120006 | 16 | 263 | 0.0 | 1.6 | 0.00 | 0.00 | 0.00 | 84 | 1005.8 |
| 20260506114505 | 17 | 263 | 0.0 | 4.8 | 0.00 | 0.00 | 0.00 | 80 | 1005.8 |
| 20260506113003 | 17 | 153 | 0.0 | 6.4 | 0.00 | 0.00 | 0.00 | 81 | 1005.7 |
| 20260506111559 | 16 | 26 | 0.0 | 9.7 | 0.00 | 0.00 | 0.00 | 80 | 1005.5 |
| 20260506104615 | 16 | 205 | 0.0 | 3.2 | 0.00 | 0.03 | 0.00 | 82 | 1005.3 |
| 20260506103054 | 15 | 184 | 0.0 | 1.6 | 0.00 | 0.03 | 0.00 | 82 | 1005.0 |
| 20260506101559 | 15 | 142 | 0.0 | 1.6 | 0.00 | 0.03 | 0.00 | 82 | 1004.9 |
| 20260506100052 | 15 | 142 | 0.0 | 3.2 | 0.00 | 0.03 | 0.00 | 81 | 1005.1 |
| 20260506094556 | 15 | 238 | 0.0 | 0.0 | 0.00 | 0.03 | 0.00 | 79 | 1005.1 |
| 20260506093047 | 15 | 238 | 0.0 | 1.6 | 0.00 | 0.03 | 0.00 | 79 | 1005.2 |
| 20260506091543 | 15 | 238 | 0.0 | 1.6 | 0.00 | 0.03 | 0.00 | 78 | 1005.4 |
| 20260506090043 | 15 | 237 | 0.0 | 0.0 | 0.00 | 0.03 | 0.00 | 77 | 1005.4 |
| 20260506084537 | 15 | 237 | 0.0 | 3.2 | 0.00 | 0.08 | 0.00 | 76 | 1005.4 |
| 20260506083036 | 15 | 240 | 0.0 | 1.6 | 0.00 | 0.08 | 0.00 | 75 | 1005.5 |
| 20260506081536 | 15 | 240 | 0.0 | 3.2 | 0.00 | 0.08 | 0.00 | 74 | 1005.5 |
| 20260506073024 | 16 | 30 | 0.0 | 0.0 | 0.00 | 0.10 | 0.00 | 72 | 1005.6 |
| 20260506071523 | 16 | 30 | 0.0 | 1.6 | 0.00 | 0.10 | 0.00 | 71 | 1005.6 |
| 20260506061513 | 16 | 53 | 0.0 | 3.2 | 0.00 | 0.10 | 0.00 | 67 | 1006.2 |